sensor_id;sensor_type;location;lat;lon;timestamp;pressure;altitude;pressure_sealevel;temperature;humidity
6938;BME280;40040;42.706;23.372;2023-04-22T00:01:04;146426.94;;;9.13;100.00
6938;BME280;40040;42.706;23.372;2023-04-22T00:03:31;146441.75;;;9.20;100.00
6938;BME280;40040;42.706;23.372;2023-04-22T00:05:58;146428.19;;;9.14;100.00
6938;BME280;40040;42.706;23.372;2023-04-22T00:08:25;146455.34;;;9.25;100.00
6938;BME280;40040;42.706;23.372;2023-04-22T00:10:52;146450.41;;;9.23;100.00
6938;BME280;40040;42.706;23.372;2023-04-22T00:13:20;146454.09;;;9.25;100.00
6938;BME280;40040;42.706;23.372;2023-04-22T00:15:47;146441.75;;;9.20;100.00
6938;BME280;40040;42.706;23.372;2023-04-22T00:18:13;146404.81;;;9.04;100.00
6938;BME280;40040;42.706;23.372;2023-04-22T00:20:41;146377.69;;;8.93;100.00
6938;BME280;40040;42.706;23.372;2023-04-22T00:23:08;146404.81;;;9.04;100.00
6938;BME280;40040;42.706;23.372;2023-04-22T00:25:36;146410.94;;;9.07;100.00
6938;BME280;40040;42.706;23.372;2023-04-22T00:28:03;146404.81;;;9.04;100.00
6938;BME280;40040;42.706;23.372;2023-04-22T00:30:31;146381.38;;;8.95;100.00
6938;BME280;40040;42.706;23.372;2023-04-22T00:32:58;146385.06;;;8.96;100.00
6938;BME280;40040;42.706;23.372;2023-04-22T00:35:24;146380.13;;;8.94;100.00
6938;BME280;40040;42.706;23.372;2023-04-22T00:37:51;146381.38;;;8.95;100.00
6938;BME280;40040;42.706;23.372;2023-04-22T00:40:18;146358.00;;;8.85;100.00
6938;BME280;40040;42.706;23.372;2023-04-22T00:42:48;146334.56;;;8.76;100.00
6938;BME280;40040;42.706;23.372;2023-04-22T00:45:16;146329.63;;;8.74;100.00
6938;BME280;40040;42.706;23.372;2023-04-22T00:47:46;146301.31;;;8.62;100.00
6938;BME280;40040;42.706;23.372;2023-04-22T00:50:13;146252.03;;;8.42;100.00
6938;BME280;40040;42.706;23.372;2023-04-22T00:52:41;146258.19;;;8.45;100.00
6938;BME280;40040;42.706;23.372;2023-04-22T00:55:08;146261.88;;;8.46;100.00
6938;BME280;40040;42.706;23.372;2023-04-22T00:57:35;146256.94;;;8.44;100.00
6938;BME280;40040;42.706;23.372;2023-04-22T01:00:03;146249.56;;;8.41;100.00
6938;BME280;40040;42.706;23.372;2023-04-22T01:02:30;146229.88;;;8.33;100.00
6938;BME280;40040;42.706;23.372;2023-04-22T01:04:59;146221.25;;;8.30;100.00
6938;BME280;40040;42.706;23.372;2023-04-22T01:07:26;146217.53;;;8.28;100.00
6938;BME280;40040;42.706;23.372;2023-04-22T01:09:53;146222.47;;;8.30;100.00
6938;BME280;40040;42.706;23.372;2023-04-22T01:12:19;146218.78;;;8.29;100.00
6938;BME280;40040;42.706;23.372;2023-04-22T01:14:46;146178.13;;;8.12;100.00
6938;BME280;40040;42.706;23.372;2023-04-22T01:17:14;146139.94;;;7.96;100.00
6938;BME280;40040;42.706;23.372;2023-04-22T01:19:44;146171.94;;;8.10;100.00
6938;BME280;40040;42.706;23.372;2023-04-22T01:22:13;146180.56;;;8.13;100.00
6938;BME280;40040;42.706;23.372;2023-04-22T01:24:42;146152.25;;;8.02;100.00
6938;BME280;40040;42.706;23.372;2023-04-22T01:27:09;146133.78;;;7.94;100.00
6938;BME280;40040;42.706;23.372;2023-04-22T01:29:36;146141.16;;;7.97;100.00
6938;BME280;40040;42.706;23.372;2023-04-22T01:32:04;146123.91;;;7.90;100.00
6938;BME280;40040;42.706;23.372;2023-04-22T01:34:31;146180.56;;;8.13;100.00
6938;BME280;40040;42.706;23.372;2023-04-22T01:36:58;146157.19;;;8.04;100.00
6938;BME280;40040;42.706;23.372;2023-04-22T01:39:25;146195.34;;;8.19;100.00
6938;BME280;40040;42.706;23.372;2023-04-22T01:41:53;146190.41;;;8.17;100.00
6938;BME280;40040;42.706;23.372;2023-04-22T01:44:21;146202.72;;;8.22;100.00
6938;BME280;40040;42.706;23.372;2023-04-22T01:46:47;146206.47;;;8.24;100.00
6938;BME280;40040;42.706;23.372;2023-04-22T01:49:15;146202.72;;;8.22;100.00
6938;BME280;40040;42.706;23.372;2023-04-22T01:51:42;146173.19;;;8.10;100.00
6938;BME280;40040;42.706;23.372;2023-04-22T01:54:09;146216.34;;;8.28;100.00
6938;BME280;40040;42.706;23.372;2023-04-22T01:56:36;146231.09;;;8.34;100.00
6938;BME280;40040;42.706;23.372;2023-04-22T01:59:06;146238.50;;;8.37;100.00
6938;BME280;40040;42.706;23.372;2023-04-22T02:01:33;146240.97;;;8.38;100.00
6938;BME280;40040;42.706;23.372;2023-04-22T02:04:00;146237.25;;;8.36;100.00
6938;BME280;40040;42.706;23.372;2023-04-22T02:06:26;146242.19;;;8.38;100.00
6938;BME280;40040;42.706;23.372;2023-04-22T02:08:53;146245.88;;;8.40;100.00
6938;BME280;40040;42.706;23.372;2023-04-22T02:11:20;146247.13;;;8.40;100.00
6938;BME280;40040;42.706;23.372;2023-04-22T02:13:47;146250.81;;;8.42;100.00
6938;BME280;40040;42.706;23.372;2023-04-22T02:16:15;146260.63;;;8.46;100.00
6938;BME280;40040;42.706;23.372;2023-04-22T02:18:42;146265.56;;;8.48;100.00
6938;BME280;40040;42.706;23.372;2023-04-22T02:21:09;146239.72;;;8.37;100.00
6938;BME280;40040;42.706;23.372;2023-04-22T02:23:36;146227.41;;;8.32;100.00
6938;BME280;40040;42.706;23.372;2023-04-22T02:26:04;146178.13;;;8.12;100.00
6938;BME280;40040;42.706;23.372;2023-04-22T02:28:31;146205.19;;;8.23;100.00
6938;BME280;40040;42.706;23.372;2023-04-22T02:30:58;146247.13;;;8.40;100.00
6938;BME280;40040;42.706;23.372;2023-04-22T02:33:26;146242.19;;;8.38;100.00
6938;BME280;40040;42.706;23.372;2023-04-22T02:35:53;146229.88;;;8.33;100.00
6938;BME280;40040;42.706;23.372;2023-04-22T02:38:20;146228.66;;;8.33;100.00
6938;BME280;40040;42.706;23.372;2023-04-22T02:40:46;146238.50;;;8.37;100.00
6938;BME280;40040;42.706;23.372;2023-04-22T02:43:13;146250.81;;;8.42;100.00
6938;BME280;40040;42.706;23.372;2023-04-22T02:45:40;146249.56;;;8.41;100.00
6938;BME280;40040;42.706;23.372;2023-04-22T02:48:07;146247.13;;;8.40;100.00
6938;BME280;40040;42.706;23.372;2023-04-22T02:50:35;146215.09;;;8.27;100.00
6938;BME280;40040;42.706;23.372;2023-04-22T02:53:02;146239.72;;;8.37;100.00
6938;BME280;40040;42.706;23.372;2023-04-22T02:55:28;146215.09;;;8.27;100.00
6938;BME280;40040;42.706;23.372;2023-04-22T02:57:55;146183.03;;;8.14;100.00
6938;BME280;40040;42.706;23.372;2023-04-22T03:00:22;146212.66;;;8.26;100.00
6938;BME280;40040;42.706;23.372;2023-04-22T03:02:49;146178.13;;;8.12;100.00
6938;BME280;40040;42.706;23.372;2023-04-22T03:05:16;146202.72;;;8.22;100.00
6938;BME280;40040;42.706;23.372;2023-04-22T03:07:44;146217.53;;;8.28;100.00
6938;BME280;40040;42.706;23.372;2023-04-22T03:10:11;146232.34;;;8.34;100.00
6938;BME280;40040;42.706;23.372;2023-04-22T03:12:38;146222.47;;;8.30;100.00
6938;BME280;40040;42.706;23.372;2023-04-22T03:15:06;146187.94;;;8.16;100.00
6938;BME280;40040;42.706;23.372;2023-04-22T03:17:33;146196.56;;;8.20;100.00
6938;BME280;40040;42.706;23.372;2023-04-22T03:20:00;146151.00;;;8.01;100.00
6938;BME280;40040;42.706;23.372;2023-04-22T03:22:27;146141.16;;;7.97;100.00
6938;BME280;40040;42.706;23.372;2023-04-22T03:24:55;146168.25;;;8.08;100.00
6938;BME280;40040;42.706;23.372;2023-04-22T03:27:22;146157.19;;;8.04;100.00
6938;BME280;40040;42.706;23.372;2023-04-22T03:29:48;146135.03;;;7.94;100.00
6938;BME280;40040;42.706;23.372;2023-04-22T03:32:15;146148.56;;;8.00;100.00
6938;BME280;40040;42.706;23.372;2023-04-22T03:34:42;146138.69;;;7.96;100.00
6938;BME280;40040;42.706;23.372;2023-04-22T03:37:09;146148.56;;;8.00;100.00
6938;BME280;40040;42.706;23.372;2023-04-22T03:39:36;146167.00;;;8.08;100.00
6938;BME280;40040;42.706;23.372;2023-04-22T03:42:04;146162.06;;;8.06;100.00
6938;BME280;40040;42.706;23.372;2023-04-22T03:44:31;146112.84;;;7.85;100.00
6938;BME280;40040;42.706;23.372;2023-04-22T03:46:57;146104.22;;;7.82;100.00
6938;BME280;40040;42.706;23.372;2023-04-22T03:49:24;146112.84;;;7.85;100.00
6938;BME280;40040;42.706;23.372;2023-04-22T03:51:51;146114.09;;;7.86;100.00
6938;BME280;40040;42.706;23.372;2023-04-22T03:54:18;146091.94;;;7.77;100.00
6938;BME280;40040;42.706;23.372;2023-04-22T03:56:46;146112.84;;;7.85;100.00
6938;BME280;40040;42.706;23.372;2023-04-22T03:59:14;146138.69;;;7.96;100.00
6938;BME280;40040;42.706;23.372;2023-04-22T04:01:40;146132.53;;;7.93;100.00
6938;BME280;40040;42.706;23.372;2023-04-22T04:04:07;146103.00;;;7.81;100.00
6938;BME280;40040;42.706;23.372;2023-04-22T04:06:34;146118.97;;;7.88;100.00
6938;BME280;40040;42.706;23.372;2023-04-22T04:09:01;146111.59;;;7.85;100.00
6938;BME280;40040;42.706;23.372;2023-04-22T04:11:29;146118.97;;;7.88;100.00
6938;BME280;40040;42.706;23.372;2023-04-22T04:13:56;146101.78;;;7.81;100.00
6938;BME280;40040;42.706;23.372;2023-04-22T04:16:24;146144.84;;;7.98;100.00
6938;BME280;40040;42.706;23.372;2023-04-22T04:18:51;146155.94;;;8.03;100.00
6938;BME280;40040;42.706;23.372;2023-04-22T04:21:18;146142.38;;;7.97;100.00
6938;BME280;40040;42.706;23.372;2023-04-22T04:23:46;146128.84;;;7.92;100.00
6938;BME280;40040;42.706;23.372;2023-04-22T04:26:13;146106.69;;;7.83;100.00
6938;BME280;40040;42.706;23.372;2023-04-22T04:28:41;146123.91;;;7.90;100.00
6938;BME280;40040;42.706;23.372;2023-04-22T04:31:07;146118.97;;;7.88;100.00
6938;BME280;40040;42.706;23.372;2023-04-22T04:33:36;146101.78;;;7.81;100.00
6938;BME280;40040;42.706;23.372;2023-04-22T04:36:04;146099.31;;;7.80;100.00
6938;BME280;40040;42.706;23.372;2023-04-22T04:38:33;146088.25;;;7.75;100.00
6938;BME280;40040;42.706;23.372;2023-04-22T04:40:59;146057.47;;;7.63;100.00
6938;BME280;40040;42.706;23.372;2023-04-22T04:43:27;146084.56;;;7.74;100.00
6938;BME280;40040;42.706;23.372;2023-04-22T04:45:53;146080.81;;;7.72;100.00
6938;BME280;40040;42.706;23.372;2023-04-22T04:48:20;146089.44;;;7.76;100.00
6938;BME280;40040;42.706;23.372;2023-04-22T04:50:51;146103.00;;;7.81;100.00
6938;BME280;40040;42.706;23.372;2023-04-22T04:53:20;146072.22;;;7.69;100.00
6938;BME280;40040;42.706;23.372;2023-04-22T04:55:47;146087.00;;;7.75;100.00
6938;BME280;40040;42.706;23.372;2023-04-22T04:58:13;146123.91;;;7.90;100.00
6938;BME280;40040;42.706;23.372;2023-04-22T05:00:40;146157.19;;;8.04;100.00
6938;BME280;40040;42.706;23.372;2023-04-22T05:03:07;146158.38;;;8.04;100.00
6938;BME280;40040;42.706;23.372;2023-04-22T05:05:34;146171.94;;;8.10;100.00
6938;BME280;40040;42.706;23.372;2023-04-22T05:08:02;146185.50;;;8.15;100.00
6938;BME280;40040;42.706;23.372;2023-04-22T05:10:29;146211.41;;;8.26;100.00
6938;BME280;40040;42.706;23.372;2023-04-22T05:12:56;146220.03;;;8.29;100.00
6938;BME280;40040;42.706;23.372;2023-04-22T05:15:23;146244.66;;;8.39;100.00
6938;BME280;40040;42.706;23.372;2023-04-22T05:17:49;146316.06;;;8.68;100.00
6938;BME280;40040;42.706;23.372;2023-04-22T05:20:16;146338.25;;;8.77;100.00
6938;BME280;40040;42.706;23.372;2023-04-22T05:22:43;146371.50;;;8.91;100.00
6938;BME280;40040;42.706;23.372;2023-04-22T05:25:11;146418.34;;;9.10;100.00
6938;BME280;40040;42.706;23.372;2023-04-22T05:27:39;146434.38;;;9.17;100.00
6938;BME280;40040;42.706;23.372;2023-04-22T05:30:07;146468.91;;;9.31;100.00
6938;BME280;40040;42.706;23.372;2023-04-22T05:32:34;146451.63;;;9.24;100.00
6938;BME280;40040;42.706;23.372;2023-04-22T05:35:01;146515.72;;;9.50;100.00
6938;BME280;40040;42.706;23.372;2023-04-22T05:37:28;146553.94;;;9.65;100.00
6938;BME280;40040;42.706;23.372;2023-04-22T05:39:55;146571.22;;;9.72;100.00
6938;BME280;40040;42.706;23.372;2023-04-22T05:42:23;146683.47;;;10.18;100.00
6938;BME280;40040;42.706;23.372;2023-04-22T05:44:50;146726.59;;;10.36;100.00
6938;BME280;40040;42.706;23.372;2023-04-22T05:47:16;146831.50;;;10.78;100.00
6938;BME280;40040;42.706;23.372;2023-04-22T05:49:43;146893.22;;;11.03;100.00
6938;BME280;40040;42.706;23.372;2023-04-22T05:52:10;146980.84;;;11.39;100.00
6938;BME280;40040;42.706;23.372;2023-04-22T05:54:37;147043.84;;;11.65;100.00
6938;BME280;40040;42.706;23.372;2023-04-22T05:57:04;147063.63;;;11.73;100.00
6938;BME280;40040;42.706;23.372;2023-04-22T05:59:32;147027.75;;;11.58;100.00
6938;BME280;40040;42.706;23.372;2023-04-22T06:01:58;147027.75;;;11.58;100.00
6938;BME280;40040;42.706;23.372;2023-04-22T06:04:25;147077.22;;;11.78;100.00
6938;BME280;40040;42.706;23.372;2023-04-22T06:06:52;147084.59;;;11.81;100.00
6938;BME280;40040;42.706;23.372;2023-04-22T06:09:19;147078.41;;;11.79;100.00
6938;BME280;40040;42.706;23.372;2023-04-22T06:11:46;147052.47;;;11.68;100.00
6938;BME280;40040;42.706;23.372;2023-04-22T06:14:13;147075.97;;;11.78;100.00
6938;BME280;40040;42.706;23.372;2023-04-22T06:16:41;147225.41;;;12.38;100.00
6938;BME280;40040;42.706;23.372;2023-04-22T06:19:08;147316.88;;;12.76;100.00
6938;BME280;40040;42.706;23.372;2023-04-22T06:21:35;147372.47;;;12.98;98.47
6938;BME280;40040;42.706;23.372;2023-04-22T06:24:04;147447.91;;;13.29;97.98
6938;BME280;40040;42.706;23.372;2023-04-22T06:26:31;147462.78;;;13.35;96.12
6938;BME280;40040;42.706;23.372;2023-04-22T06:28:58;147558.00;;;13.74;94.27
6938;BME280;40040;42.706;23.372;2023-04-22T06:31:25;147567.88;;;13.78;94.20
6938;BME280;40040;42.706;23.372;2023-04-22T06:33:53;147628.47;;;14.02;94.64
6938;BME280;40040;42.706;23.372;2023-04-22T06:36:20;147619.81;;;13.99;94.10
6938;BME280;40040;42.706;23.372;2023-04-22T06:38:46;147640.84;;;14.07;95.60
6938;BME280;40040;42.706;23.372;2023-04-22T06:41:14;147731.22;;;14.44;93.14
6938;BME280;40040;42.706;23.372;2023-04-22T06:43:40;147850.06;;;14.92;90.92
6938;BME280;40040;42.706;23.372;2023-04-22T06:46:07;147884.72;;;15.06;89.80
6938;BME280;40040;42.706;23.372;2023-04-22T06:48:34;147983.78;;;15.46;89.28
6938;BME280;40040;42.706;23.372;2023-04-22T06:51:02;148051.94;;;15.74;85.90
6938;BME280;40040;42.706;23.372;2023-04-22T06:53:32;148068.03;;;15.81;85.57
6938;BME280;40040;42.706;23.372;2023-04-22T06:55:59;148179.50;;;16.26;85.47
6938;BME280;40040;42.706;23.372;2023-04-22T06:58:26;148229.06;;;16.46;83.32
6938;BME280;40040;42.706;23.372;2023-04-22T07:00:53;148286.13;;;16.69;83.83
6938;BME280;40040;42.706;23.372;2023-04-22T07:03:19;148324.56;;;16.84;82.89
6938;BME280;40040;42.706;23.372;2023-04-22T07:05:46;148381.59;;;17.08;81.46
6938;BME280;40040;42.706;23.372;2023-04-22T07:08:14;148442.34;;;17.32;81.97
6938;BME280;40040;42.706;23.372;2023-04-22T07:10:41;148475.81;;;17.46;79.37
6938;BME280;40040;42.706;23.372;2023-04-22T07:13:08;148464.69;;;17.41;80.03
6938;BME280;40040;42.706;23.372;2023-04-22T07:15:35;148477.13;;;17.46;80.28
6938;BME280;40040;42.706;23.372;2023-04-22T07:18:02;148515.56;;;17.62;79.30
6938;BME280;40040;42.706;23.372;2023-04-22T07:20:29;148504.38;;;17.57;78.29
6938;BME280;40040;42.706;23.372;2023-04-22T07:22:55;148395.22;;;17.13;80.96
6938;BME280;40040;42.706;23.372;2023-04-22T07:25:24;148375.38;;;17.05;81.52
6938;BME280;40040;42.706;23.372;2023-04-22T07:27:50;148437.38;;;17.30;80.26
6938;BME280;40040;42.706;23.372;2023-04-22T07:30:17;148334.47;;;16.88;80.72
6938;BME280;40040;42.706;23.372;2023-04-22T07:32:44;148296.06;;;16.73;82.56
6938;BME280;40040;42.706;23.372;2023-04-22T07:35:11;148367.94;;;17.02;82.63
6938;BME280;40040;42.706;23.372;2023-04-22T07:37:38;148457.19;;;17.38;80.79
6938;BME280;40040;42.706;23.372;2023-04-22T07:40:05;148555.28;;;17.78;78.10
6938;BME280;40040;42.706;23.372;2023-04-22T07:42:37;148581.31;;;17.88;76.70
6938;BME280;40040;42.706;23.372;2023-04-22T07:45:05;148487.06;;;17.50;77.52
6938;BME280;40040;42.706;23.372;2023-04-22T07:47:32;148506.88;;;17.58;76.94
6938;BME280;40040;42.706;23.372;2023-04-22T07:49:59;148580.06;;;17.88;76.28
6938;BME280;40040;42.706;23.372;2023-04-22T07:52:26;148670.63;;;18.25;74.35
6938;BME280;40040;42.706;23.372;2023-04-22T07:54:52;148705.38;;;18.39;73.38
6938;BME280;40040;42.706;23.372;2023-04-22T07:57:19;148741.38;;;18.53;71.96
6938;BME280;40040;42.706;23.372;2023-04-22T07:59:48;148740.19;;;18.53;70.82
6938;BME280;40040;42.706;23.372;2023-04-22T08:02:15;148763.75;;;18.62;69.74
6938;BME280;40040;42.706;23.372;2023-04-22T08:04:42;148697.94;;;18.36;70.31
6938;BME280;40040;42.706;23.372;2023-04-22T08:07:08;148745.16;;;18.55;70.90
6938;BME280;40040;42.706;23.372;2023-04-22T08:09:35;148835.78;;;18.91;68.50
6938;BME280;40040;42.706;23.372;2023-04-22T08:12:02;148938.88;;;19.33;68.22
6938;BME280;40040;42.706;23.372;2023-04-22T08:14:29;149015.88;;;19.64;67.43
6938;BME280;40040;42.706;23.372;2023-04-22T08:16:57;149065.53;;;19.84;66.37
6938;BME280;40040;42.706;23.372;2023-04-22T08:19:24;149115.25;;;20.04;66.91
6938;BME280;40040;42.706;23.372;2023-04-22T08:21:51;149128.91;;;20.10;64.85
6938;BME280;40040;42.706;23.372;2023-04-22T08:24:17;149145.09;;;20.17;64.75
6938;BME280;40040;42.706;23.372;2023-04-22T08:26:44;149202.28;;;20.40;64.36
6938;BME280;40040;42.706;23.372;2023-04-22T08:29:11;149278.06;;;20.70;62.04
6938;BME280;40040;42.706;23.372;2023-04-22T08:31:38;149179.91;;;20.31;63.75
6938;BME280;40040;42.706;23.372;2023-04-22T08:34:06;149263.13;;;20.64;61.77
6938;BME280;40040;42.706;23.372;2023-04-22T08:36:33;149335.25;;;20.93;62.19
6938;BME280;40040;42.706;23.372;2023-04-22T08:39:00;149376.31;;;21.10;61.61
6938;BME280;40040;42.706;23.372;2023-04-22T08:41:28;149351.47;;;21.00;62.21
6938;BME280;40040;42.706;23.372;2023-04-22T08:43:56;149438.50;;;21.35;59.13
6938;BME280;40040;42.706;23.372;2023-04-22T08:46:24;149550.47;;;21.80;58.26
6938;BME280;40040;42.706;23.372;2023-04-22T08:48:51;149704.75;;;22.43;56.86
6938;BME280;40040;42.706;23.372;2023-04-22T08:51:21;149749.59;;;22.61;55.77
6938;BME280;40040;42.706;23.372;2023-04-22T08:53:48;149747.09;;;22.60;53.98
6938;BME280;40040;42.706;23.372;2023-04-22T08:56:15;149713.44;;;22.46;53.17
6938;BME280;40040;42.706;23.372;2023-04-22T08:58:42;149689.84;;;22.37;53.90
6938;BME280;40040;42.706;23.372;2023-04-22T09:01:09;149696.03;;;22.39;53.97
6938;BME280;40040;42.706;23.372;2023-04-22T09:03:38;149674.88;;;22.30;54.66
6938;BME280;40040;42.706;23.372;2023-04-22T09:06:06;149714.72;;;22.47;53.41
6938;BME280;40040;42.706;23.372;2023-04-22T09:08:37;149753.34;;;22.62;52.95
6938;BME280;40040;42.706;23.372;2023-04-22T09:11:04;149794.38;;;22.79;52.21
6938;BME280;40040;42.706;23.372;2023-04-22T09:13:31;149718.44;;;22.48;52.68
6938;BME280;40040;42.706;23.372;2023-04-22T09:15:59;149668.69;;;22.28;53.39
6938;BME280;40040;42.706;23.372;2023-04-22T09:18:25;149778.22;;;22.72;54.22
6938;BME280;40040;42.706;23.372;2023-04-22T09:20:54;149866.63;;;23.08;52.68
6938;BME280;40040;42.706;23.372;2023-04-22T09:23:21;149963.75;;;23.47;50.40
6938;BME280;40040;42.706;23.372;2023-04-22T09:25:49;150083.34;;;23.95;51.23
6938;BME280;40040;42.706;23.372;2023-04-22T09:28:17;150169.34;;;24.30;49.08
6938;BME280;40040;42.706;23.372;2023-04-22T09:30:45;150143.19;;;24.19;48.90
6938;BME280;40040;42.706;23.372;2023-04-22T09:33:12;150123.22;;;24.11;48.46
6938;BME280;40040;42.706;23.372;2023-04-22T09:35:40;150143.19;;;24.19;48.25
6938;BME280;40040;42.706;23.372;2023-04-22T09:38:09;150143.19;;;24.19;45.84
6938;BME280;40040;42.706;23.372;2023-04-22T09:40:37;150129.47;;;24.14;46.90
6938;BME280;40040;42.706;23.372;2023-04-22T09:43:07;150140.66;;;24.18;46.90
6938;BME280;40040;42.706;23.372;2023-04-22T09:45:35;150088.28;;;23.97;46.85
6938;BME280;40040;42.706;23.372;2023-04-22T09:48:06;150083.34;;;23.95;49.32
6938;BME280;40040;42.706;23.372;2023-04-22T09:50:33;149900.22;;;23.21;46.91
6938;BME280;40040;42.706;23.372;2023-04-22T09:53:01;149610.19;;;22.04;49.27
6938;BME280;40040;42.706;23.372;2023-04-22T09:55:31;149232.09;;;20.52;50.94
6938;BME280;40040;42.706;23.372;2023-04-22T09:58:06;148909.03;;;19.21;54.83
6938;BME280;40040;42.706;23.372;2023-04-22T10:00:35;148836.97;;;18.92;54.88
6938;BME280;40040;42.706;23.372;2023-04-22T10:03:04;148869.28;;;19.05;55.92
6938;BME280;40040;42.706;23.372;2023-04-22T10:05:30;148818.38;;;18.84;54.11
6938;BME280;40040;42.706;23.372;2023-04-22T10:07:58;148690.47;;;18.33;56.95
6938;BME280;40040;42.706;23.372;2023-04-22T10:10:25;148737.66;;;18.52;55.32
6938;BME280;40040;42.706;23.372;2023-04-22T10:12:52;148856.88;;;19.00;54.84
6938;BME280;40040;42.706;23.372;2023-04-22T10:15:21;148896.56;;;19.16;53.31
6938;BME280;40040;42.706;23.372;2023-04-22T10:17:51;148861.84;;;19.02;52.83
6938;BME280;40040;42.706;23.372;2023-04-22T10:20:19;148792.31;;;18.74;51.77
6938;BME280;40040;42.706;23.372;2023-04-22T10:22:47;148832.00;;;18.90;51.99
6938;BME280;40040;42.706;23.372;2023-04-22T10:25:20;148895.34;;;19.16;51.31
6938;BME280;40040;42.706;23.372;2023-04-22T10:27:52;148923.91;;;19.27;53.08
6938;BME280;40040;42.706;23.372;2023-04-22T10:30:28;149004.66;;;19.60;52.54
6938;BME280;40040;42.706;23.372;2023-04-22T10:32:55;149099.06;;;19.98;48.12
6938;BME280;40040;42.706;23.372;2023-04-22T10:35:26;149183.63;;;20.32;46.24
6938;BME280;40040;42.706;23.372;2023-04-22T10:37:53;149229.59;;;20.51;45.91
6938;BME280;40040;42.706;23.372;2023-04-22T10:40:20;149270.63;;;20.67;45.96
6938;BME280;40040;42.706;23.372;2023-04-22T10:42:50;149381.28;;;21.12;45.05
6938;BME280;40040;42.706;23.372;2023-04-22T10:45:17;149416.13;;;21.26;43.83
6938;BME280;40040;42.706;23.372;2023-04-22T10:47:46;149343.97;;;20.97;43.80
6938;BME280;40040;42.706;23.372;2023-04-22T10:50:16;149426.06;;;21.30;42.29
6938;BME280;40040;42.706;23.372;2023-04-22T10:52:46;149528.03;;;21.71;43.52
6938;BME280;40040;42.706;23.372;2023-04-22T10:55:13;149463.34;;;21.45;42.57
6938;BME280;40040;42.706;23.372;2023-04-22T10:57:41;149423.56;;;21.29;43.85
6938;BME280;40040;42.706;23.372;2023-04-22T11:00:29;149378.81;;;21.11;43.02
6938;BME280;40040;42.706;23.372;2023-04-22T11:03:09;149304.16;;;20.81;42.98
6938;BME280;40040;42.706;23.372;2023-04-22T11:05:37;149329.03;;;20.91;42.80
6938;BME280;40040;42.706;23.372;2023-04-22T11:08:07;149353.91;;;21.01;45.27
6938;BME280;40040;42.706;23.372;2023-04-22T11:10:36;149412.38;;;21.24;47.47
6938;BME280;40040;42.706;23.372;2023-04-22T11:13:06;149403.69;;;21.21;46.78
6938;BME280;40040;42.706;23.372;2023-04-22T11:15:35;149372.59;;;21.08;51.65
6938;BME280;40040;42.706;23.372;2023-04-22T11:18:03;149372.59;;;21.08;51.51
6938;BME280;40040;42.706;23.372;2023-04-22T11:20:34;149391.25;;;21.16;52.61
6938;BME280;40040;42.706;23.372;2023-04-22T11:23:02;149399.97;;;21.19;53.23
6938;BME280;40040;42.706;23.372;2023-04-22T11:25:29;149373.84;;;21.09;53.01
6938;BME280;40040;42.706;23.372;2023-04-22T11:27:56;149351.47;;;21.00;50.68
6938;BME280;40040;42.706;23.372;2023-04-22T11:30:25;149414.84;;;21.25;48.85
6938;BME280;40040;42.706;23.372;2023-04-22T11:32:53;149406.16;;;21.22;50.48
6938;BME280;40040;42.706;23.372;2023-04-22T11:35:21;149403.69;;;21.21;49.12
6938;BME280;40040;42.706;23.372;2023-04-22T11:37:51;149358.91;;;21.03;49.20
6938;BME280;40040;42.706;23.372;2023-04-22T11:40:20;149371.34;;;21.08;48.62
6938;BME280;40040;42.706;23.372;2023-04-22T11:42:47;149347.75;;;20.98;49.01
6938;BME280;40040;42.706;23.372;2023-04-22T11:45:15;149304.16;;;20.81;51.16
6938;BME280;40040;42.706;23.372;2023-04-22T11:47:42;149219.69;;;20.47;51.49
6938;BME280;40040;42.706;23.372;2023-04-22T11:50:11;149064.31;;;19.84;52.25
6938;BME280;40040;42.706;23.372;2023-04-22T11:52:43;148978.56;;;19.49;55.61
6938;BME280;40040;42.706;23.372;2023-04-22T11:55:12;148923.91;;;19.27;55.68
6938;BME280;40040;42.706;23.372;2023-04-22T11:57:39;148859.34;;;19.01;55.54
6938;BME280;40040;42.706;23.372;2023-04-22T12:00:09;148829.53;;;18.89;56.76
6938;BME280;40040;42.706;23.372;2023-04-22T12:02:36;148797.25;;;18.76;58.22
6938;BME280;40040;42.706;23.372;2023-04-22T12:05:03;148793.53;;;18.74;56.85
6938;BME280;40040;42.706;23.372;2023-04-22T12:07:34;148746.38;;;18.55;56.26
6938;BME280;40040;42.706;23.372;2023-04-22T12:10:01;148683.03;;;18.30;55.68
6938;BME280;40040;42.706;23.372;2023-04-22T12:12:33;148706.63;;;18.39;54.40
6938;BME280;40040;42.706;23.372;2023-04-22T12:15:08;148637.16;;;18.11;55.18
6938;BME280;40040;42.706;23.372;2023-04-22T12:17:36;148637.16;;;18.11;56.77
6938;BME280;40040;42.706;23.372;2023-04-22T12:20:03;148680.59;;;18.29;55.96
6938;BME280;40040;42.706;23.372;2023-04-22T12:22:31;148643.31;;;18.14;56.27
6938;BME280;40040;42.706;23.372;2023-04-22T12:24:59;148561.44;;;17.80;58.04
6938;BME280;40040;42.706;23.372;2023-04-22T12:27:26;148484.53;;;17.49;59.88
6938;BME280;40040;42.706;23.372;2023-04-22T12:29:55;148479.59;;;17.47;62.12
6938;BME280;40040;42.706;23.372;2023-04-22T12:32:25;148478.38;;;17.47;63.00
6938;BME280;40040;42.706;23.372;2023-04-22T12:34:52;148489.50;;;17.51;61.70
6938;BME280;40040;42.706;23.372;2023-04-22T12:37:19;148473.38;;;17.45;62.01
6938;BME280;40040;42.706;23.372;2023-04-22T12:39:46;148470.84;;;17.44;62.71
6938;BME280;40040;42.706;23.372;2023-04-22T12:42:13;148444.81;;;17.33;63.63
6938;BME280;40040;42.706;23.372;2023-04-22T12:44:40;148514.31;;;17.61;61.71
6938;BME280;40040;42.706;23.372;2023-04-22T12:47:09;148515.56;;;17.62;61.67
6938;BME280;40040;42.706;23.372;2023-04-22T12:49:36;148516.81;;;17.62;61.98
6938;BME280;40040;42.706;23.372;2023-04-22T12:52:04;148499.44;;;17.55;60.51